sensor_id;sensor_type;location;lat;lon;timestamp;temperature;humidity
14733;DHT22;7457;50.960;6.830;2022-11-15T00:01:47;9.60;92.30
14733;DHT22;7457;50.960;6.830;2022-11-15T00:04:13;9.60;92.30
14733;DHT22;7457;50.960;6.830;2022-11-15T00:06:38;9.70;92.30
14733;DHT22;7457;50.960;6.830;2022-11-15T00:09:04;9.70;92.50
14733;DHT22;7457;50.960;6.830;2022-11-15T00:11:30;9.70;92.50
14733;DHT22;7457;50.960;6.830;2022-11-15T00:13:56;9.80;92.40
14733;DHT22;7457;50.960;6.830;2022-11-15T00:16:22;9.80;92.40
14733;DHT22;7457;50.960;6.830;2022-11-15T00:18:48;9.90;92.20
14733;DHT22;7457;50.960;6.830;2022-11-15T00:21:14;9.90;92.20
14733;DHT22;7457;50.960;6.830;2022-11-15T00:23:40;9.90;92.20
14733;DHT22;7457;50.960;6.830;2022-11-15T00:26:07;9.90;92.10
14733;DHT22;7457;50.960;6.830;2022-11-15T00:28:36;9.90;92.10
14733;DHT22;7457;50.960;6.830;2022-11-15T00:31:03;9.90;92.10
14733;DHT22;7457;50.960;6.830;2022-11-15T00:33:29;10.00;92.10
14733;DHT22;7457;50.960;6.830;2022-11-15T00:36:03;10.00;92.10
14733;DHT22;7457;50.960;6.830;2022-11-15T00:38:33;10.00;92.10
14733;DHT22;7457;50.960;6.830;2022-11-15T00:41:00;10.00;92.10
14733;DHT22;7457;50.960;6.830;2022-11-15T00:43:26;10.10;92.00
14733;DHT22;7457;50.960;6.830;2022-11-15T00:45:52;10.10;91.90
14733;DHT22;7457;50.960;6.830;2022-11-15T00:48:17;10.10;91.70
14733;DHT22;7457;50.960;6.830;2022-11-15T00:50:43;10.10;92.00
14733;DHT22;7457;50.960;6.830;2022-11-15T00:53:09;10.10;91.90
14733;DHT22;7457;50.960;6.830;2022-11-15T00:55:34;10.10;92.00
14733;DHT22;7457;50.960;6.830;2022-11-15T00:58:00;10.10;92.10
14733;DHT22;7457;50.960;6.830;2022-11-15T01:00:26;10.10;92.20
14733;DHT22;7457;50.960;6.830;2022-11-15T01:02:51;10.10;92.40
14733;DHT22;7457;50.960;6.830;2022-11-15T01:05:17;10.10;92.40
14733;DHT22;7457;50.960;6.830;2022-11-15T01:07:43;10.10;92.40
14733;DHT22;7457;50.960;6.830;2022-11-15T01:10:09;10.10;92.50
14733;DHT22;7457;50.960;6.830;2022-11-15T01:12:34;10.20;92.50
14733;DHT22;7457;50.960;6.830;2022-11-15T01:15:00;10.20;92.70
14733;DHT22;7457;50.960;6.830;2022-11-15T01:17:26;10.10;92.70
14733;DHT22;7457;50.960;6.830;2022-11-15T01:19:51;10.10;92.70
14733;DHT22;7457;50.960;6.830;2022-11-15T01:22:17;10.10;93.00
14733;DHT22;7457;50.960;6.830;2022-11-15T01:24:43;10.10;93.30
14733;DHT22;7457;50.960;6.830;2022-11-15T01:27:09;10.20;93.30
14733;DHT22;7457;50.960;6.830;2022-11-15T01:29:34;10.20;93.40
14733;DHT22;7457;50.960;6.830;2022-11-15T01:32:00;10.20;93.40
14733;DHT22;7457;50.960;6.830;2022-11-15T01:34:26;10.30;93.40
14733;DHT22;7457;50.960;6.830;2022-11-15T01:36:51;10.30;93.40
14733;DHT22;7457;50.960;6.830;2022-11-15T01:39:17;10.30;93.30
14733;DHT22;7457;50.960;6.830;2022-11-15T01:41:43;10.40;93.30
14733;DHT22;7457;50.960;6.830;2022-11-15T01:46:56;10.40;93.30
14733;DHT22;7457;50.960;6.830;2022-11-15T01:49:23;10.40;93.30
14733;DHT22;7457;50.960;6.830;2022-11-15T01:51:49;10.50;93.30
14733;DHT22;7457;50.960;6.830;2022-11-15T01:54:17;10.50;93.20
14733;DHT22;7457;50.960;6.830;2022-11-15T01:56:52;10.50;93.20
14733;DHT22;7457;50.960;6.830;2022-11-15T01:59:19;10.60;93.20
14733;DHT22;7457;50.960;6.830;2022-11-15T02:01:45;10.60;93.30
14733;DHT22;7457;50.960;6.830;2022-11-15T02:06:47;10.70;93.10
14733;DHT22;7457;50.960;6.830;2022-11-15T02:09:14;10.80;93.10
14733;DHT22;7457;50.960;6.830;2022-11-15T02:11:40;10.80;92.90
14733;DHT22;7457;50.960;6.830;2022-11-15T02:14:07;10.90;92.90
14733;DHT22;7457;50.960;6.830;2022-11-15T02:30:24;11.10;92.70
14733;DHT22;7457;50.960;6.830;2022-11-15T02:35:52;11.10;92.50
14733;DHT22;7457;50.960;6.830;2022-11-15T02:38:58;11.10;92.60
14733;DHT22;7457;50.960;6.830;2022-11-15T02:44:30;11.10;92.80
14733;DHT22;7457;50.960;6.830;2022-11-15T02:47:07;11.20;92.80
14733;DHT22;7457;50.960;6.830;2022-11-15T02:49:42;11.20;92.70
14733;DHT22;7457;50.960;6.830;2022-11-15T02:52:08;11.20;92.60
14733;DHT22;7457;50.960;6.830;2022-11-15T02:54:35;11.20;92.50
14733;DHT22;7457;50.960;6.830;2022-11-15T02:57:14;11.20;92.50
14733;DHT22;7457;50.960;6.830;2022-11-15T03:07:57;11.20;92.40
14733;DHT22;7457;50.960;6.830;2022-11-15T03:10:26;11.20;92.40
14733;DHT22;7457;50.960;6.830;2022-11-15T03:13:06;11.10;92.40
14733;DHT22;7457;50.960;6.830;2022-11-15T03:15:40;11.10;92.50
14733;DHT22;7457;50.960;6.830;2022-11-15T03:18:15;11.10;92.70
14733;DHT22;7457;50.960;6.830;2022-11-15T03:20:43;11.10;92.90
14733;DHT22;7457;50.960;6.830;2022-11-15T03:23:10;11.10;93.10
14733;DHT22;7457;50.960;6.830;2022-11-15T03:25:42;11.10;93.20
14733;DHT22;7457;50.960;6.830;2022-11-15T03:28:12;11.10;93.10
14733;DHT22;7457;50.960;6.830;2022-11-15T03:30:39;11.20;93.10
14733;DHT22;7457;50.960;6.830;2022-11-15T03:33:06;11.20;93.10
14733;DHT22;7457;50.960;6.830;2022-11-15T03:35:37;11.20;93.00
14733;DHT22;7457;50.960;6.830;2022-11-15T03:38:26;11.20;93.00
14733;DHT22;7457;50.960;6.830;2022-11-15T03:40:59;11.20;92.80
14733;DHT22;7457;50.960;6.830;2022-11-15T03:46:01;11.20;92.90
14733;DHT22;7457;50.960;6.830;2022-11-15T03:48:35;11.20;92.80
14733;DHT22;7457;50.960;6.830;2022-11-15T03:51:03;11.20;92.80
14733;DHT22;7457;50.960;6.830;2022-11-15T03:53:29;11.20;92.80
14733;DHT22;7457;50.960;6.830;2022-11-15T03:55:56;11.20;92.80
14733;DHT22;7457;50.960;6.830;2022-11-15T03:58:21;11.10;92.90
14733;DHT22;7457;50.960;6.830;2022-11-15T04:00:47;11.10;93.10
14733;DHT22;7457;50.960;6.830;2022-11-15T04:03:12;11.10;93.30
14733;DHT22;7457;50.960;6.830;2022-11-15T04:05:38;11.20;93.40
14733;DHT22;7457;50.960;6.830;2022-11-15T04:08:03;11.20;93.50
14733;DHT22;7457;50.960;6.830;2022-11-15T04:10:29;11.20;93.50
14733;DHT22;7457;50.960;6.830;2022-11-15T04:12:55;11.30;93.50
14733;DHT22;7457;50.960;6.830;2022-11-15T04:15:22;11.40;93.40
14733;DHT22;7457;50.960;6.830;2022-11-15T04:23:07;11.50;92.90
14733;DHT22;7457;50.960;6.830;2022-11-15T04:25:54;11.60;92.70
14733;DHT22;7457;50.960;6.830;2022-11-15T04:28:20;11.60;92.50
14733;DHT22;7457;50.960;6.830;2022-11-15T04:30:46;11.60;92.40
14733;DHT22;7457;50.960;6.830;2022-11-15T04:33:12;11.50;92.30
14733;DHT22;7457;50.960;6.830;2022-11-15T04:35:38;11.50;92.30
14733;DHT22;7457;50.960;6.830;2022-11-15T04:38:06;11.50;92.40
14733;DHT22;7457;50.960;6.830;2022-11-15T04:40:32;11.50;92.40
14733;DHT22;7457;50.960;6.830;2022-11-15T04:42:58;11.50;92.60
14733;DHT22;7457;50.960;6.830;2022-11-15T04:45:24;11.50;92.60
14733;DHT22;7457;50.960;6.830;2022-11-15T04:47:49;11.50;92.60
14733;DHT22;7457;50.960;6.830;2022-11-15T04:50:15;11.50;92.60
14733;DHT22;7457;50.960;6.830;2022-11-15T04:52:51;11.50;92.40
14733;DHT22;7457;50.960;6.830;2022-11-15T04:55:17;11.50;92.50
14733;DHT22;7457;50.960;6.830;2022-11-15T04:57:42;11.50;92.50
14733;DHT22;7457;50.960;6.830;2022-11-15T05:00:14;11.50;92.60
14733;DHT22;7457;50.960;6.830;2022-11-15T05:02:40;11.50;92.60
14733;DHT22;7457;50.960;6.830;2022-11-15T05:05:24;11.40;92.70
14733;DHT22;7457;50.960;6.830;2022-11-15T05:07:50;11.40;92.80
14733;DHT22;7457;50.960;6.830;2022-11-15T05:10:16;11.40;92.90
14733;DHT22;7457;50.960;6.830;2022-11-15T05:12:42;11.40;93.00
14733;DHT22;7457;50.960;6.830;2022-11-15T05:15:08;11.40;93.10
14733;DHT22;7457;50.960;6.830;2022-11-15T05:17:34;11.40;93.10
14733;DHT22;7457;50.960;6.830;2022-11-15T05:20:00;11.40;93.10
14733;DHT22;7457;50.960;6.830;2022-11-15T05:22:26;11.40;93.10
14733;DHT22;7457;50.960;6.830;2022-11-15T05:24:52;11.40;93.20
14733;DHT22;7457;50.960;6.830;2022-11-15T05:27:17;11.40;93.10
14733;DHT22;7457;50.960;6.830;2022-11-15T05:29:43;11.50;93.10
14733;DHT22;7457;50.960;6.830;2022-11-15T05:32:09;11.50;93.10
14733;DHT22;7457;50.960;6.830;2022-11-15T05:34:35;11.50;93.10
14733;DHT22;7457;50.960;6.830;2022-11-15T05:37:01;11.50;93.00
14733;DHT22;7457;50.960;6.830;2022-11-15T05:39:26;11.60;92.80
14733;DHT22;7457;50.960;6.830;2022-11-15T05:42:09;11.50;92.70
14733;DHT22;7457;50.960;6.830;2022-11-15T05:44:36;11.50;92.60
14733;DHT22;7457;50.960;6.830;2022-11-15T05:47:05;11.50;92.60
14733;DHT22;7457;50.960;6.830;2022-11-15T05:49:36;11.50;92.60
14733;DHT22;7457;50.960;6.830;2022-11-15T05:52:06;11.40;92.60
14733;DHT22;7457;50.960;6.830;2022-11-15T05:54:33;11.40;92.60
14733;DHT22;7457;50.960;6.830;2022-11-15T05:56:59;11.30;92.60
14733;DHT22;7457;50.960;6.830;2022-11-15T05:59:25;11.30;92.60
14733;DHT22;7457;50.960;6.830;2022-11-15T06:01:53;11.20;92.70
14733;DHT22;7457;50.960;6.830;2022-11-15T06:04:19;11.20;92.60
14733;DHT22;7457;50.960;6.830;2022-11-15T06:06:44;11.10;92.60
14733;DHT22;7457;50.960;6.830;2022-11-15T06:09:10;11.00;92.70
14733;DHT22;7457;50.960;6.830;2022-11-15T06:11:35;11.00;92.90
14733;DHT22;7457;50.960;6.830;2022-11-15T06:14:01;10.90;93.20
14733;DHT22;7457;50.960;6.830;2022-11-15T06:16:27;10.90;93.50
14733;DHT22;7457;50.960;6.830;2022-11-15T06:18:52;10.80;93.70
14733;DHT22;7457;50.960;6.830;2022-11-15T06:21:18;10.80;93.70
14733;DHT22;7457;50.960;6.830;2022-11-15T06:23:43;10.80;93.90
14733;DHT22;7457;50.960;6.830;2022-11-15T06:26:09;10.80;93.90
14733;DHT22;7457;50.960;6.830;2022-11-15T06:28:35;10.80;93.90
14733;DHT22;7457;50.960;6.830;2022-11-15T06:31:08;10.70;93.90
14733;DHT22;7457;50.960;6.830;2022-11-15T06:33:34;10.70;93.90
14733;DHT22;7457;50.960;6.830;2022-11-15T06:36:03;10.70;94.00
14733;DHT22;7457;50.960;6.830;2022-11-15T06:38:29;10.70;94.00
14733;DHT22;7457;50.960;6.830;2022-11-15T06:41:00;10.60;93.80
14733;DHT22;7457;50.960;6.830;2022-11-15T06:43:26;10.60;93.70
14733;DHT22;7457;50.960;6.830;2022-11-15T06:45:52;10.60;93.50
14733;DHT22;7457;50.960;6.830;2022-11-15T06:48:17;10.60;93.40
14733;DHT22;7457;50.960;6.830;2022-11-15T06:50:43;10.60;93.50
14733;DHT22;7457;50.960;6.830;2022-11-15T06:53:15;10.60;93.50
14733;DHT22;7457;50.960;6.830;2022-11-15T06:55:41;10.50;93.40
14733;DHT22;7457;50.960;6.830;2022-11-15T06:58:06;10.50;93.30
14733;DHT22;7457;50.960;6.830;2022-11-15T07:00:32;10.50;93.30
14733;DHT22;7457;50.960;6.830;2022-11-15T07:03:00;10.50;93.50
14733;DHT22;7457;50.960;6.830;2022-11-15T07:05:26;10.40;93.60
14733;DHT22;7457;50.960;6.830;2022-11-15T07:07:55;10.50;93.60
14733;DHT22;7457;50.960;6.830;2022-11-15T07:10:22;10.40;94.10
14733;DHT22;7457;50.960;6.830;2022-11-15T07:12:52;10.40;93.50
14733;DHT22;7457;50.960;6.830;2022-11-15T07:15:20;10.40;93.60
14733;DHT22;7457;50.960;6.830;2022-11-15T07:17:46;10.40;93.50
14733;DHT22;7457;50.960;6.830;2022-11-15T07:20:12;10.40;93.50
14733;DHT22;7457;50.960;6.830;2022-11-15T07:22:42;10.40;93.50
14733;DHT22;7457;50.960;6.830;2022-11-15T07:25:08;10.40;93.50
14733;DHT22;7457;50.960;6.830;2022-11-15T07:27:34;10.30;93.50
14733;DHT22;7457;50.960;6.830;2022-11-15T07:30:00;10.30;93.50
14733;DHT22;7457;50.960;6.830;2022-11-15T07:32:26;10.30;93.50
14733;DHT22;7457;50.960;6.830;2022-11-15T07:34:52;10.40;93.60
14733;DHT22;7457;50.960;6.830;2022-11-15T07:37:17;10.40;93.50
14733;DHT22;7457;50.960;6.830;2022-11-15T07:39:43;10.40;93.60
14733;DHT22;7457;50.960;6.830;2022-11-15T07:42:09;10.50;94.00
14733;DHT22;7457;50.960;6.830;2022-11-15T07:44:53;10.50;94.10
14733;DHT22;7457;50.960;6.830;2022-11-15T07:47:19;10.60;93.60
14733;DHT22;7457;50.960;6.830;2022-11-15T07:49:45;10.70;93.30
14733;DHT22;7457;50.960;6.830;2022-11-15T07:52:12;10.80;93.00
14733;DHT22;7457;50.960;6.830;2022-11-15T07:54:37;10.90;92.60
14733;DHT22;7457;50.960;6.830;2022-11-15T07:57:04;11.00;92.20
14733;DHT22;7457;50.960;6.830;2022-11-15T07:59:29;11.00;91.90
14733;DHT22;7457;50.960;6.830;2022-11-15T08:01:55;11.10;91.60
14733;DHT22;7457;50.960;6.830;2022-11-15T08:04:21;11.10;91.50
14733;DHT22;7457;50.960;6.830;2022-11-15T08:06:47;11.10;91.40
14733;DHT22;7457;50.960;6.830;2022-11-15T08:09:13;11.10;91.30
14733;DHT22;7457;50.960;6.830;2022-11-15T08:11:39;11.20;91.10
14733;DHT22;7457;50.960;6.830;2022-11-15T08:14:05;11.10;90.90
14733;DHT22;7457;50.960;6.830;2022-11-15T08:16:30;11.10;91.10
14733;DHT22;7457;50.960;6.830;2022-11-15T08:18:56;11.20;90.90
14733;DHT22;7457;50.960;6.830;2022-11-15T08:21:22;11.20;90.70
14733;DHT22;7457;50.960;6.830;2022-11-15T08:23:48;11.10;90.60
14733;DHT22;7457;50.960;6.830;2022-11-15T08:26:13;11.20;90.40
14733;DHT22;7457;50.960;6.830;2022-11-15T08:28:40;11.20;90.50
14733;DHT22;7457;50.960;6.830;2022-11-15T08:31:05;11.20;90.60
14733;DHT22;7457;50.960;6.830;2022-11-15T08:33:32;11.20;90.60
14733;DHT22;7457;50.960;6.830;2022-11-15T08:35:59;11.30;90.30
14733;DHT22;7457;50.960;6.830;2022-11-15T08:38:26;11.30;90.20
14733;DHT22;7457;50.960;6.830;2022-11-15T08:41:00;11.40;89.90
14733;DHT22;7457;50.960;6.830;2022-11-15T08:43:26;11.40;89.80
14733;DHT22;7457;50.960;6.830;2022-11-15T08:45:55;11.40;89.70
14733;DHT22;7457;50.960;6.830;2022-11-15T08:48:20;11.50;89.40
14733;DHT22;7457;50.960;6.830;2022-11-15T08:50:46;11.60;89.30
14733;DHT22;7457;50.960;6.830;2022-11-15T08:53:12;11.70;89.10
14733;DHT22;7457;50.960;6.830;2022-11-15T08:55:39;11.80;89.00
14733;DHT22;7457;50.960;6.830;2022-11-15T08:58:05;11.90;88.60
14733;DHT22;7457;50.960;6.830;2022-11-15T09:00:30;12.00;88.10
14733;DHT22;7457;50.960;6.830;2022-11-15T09:02:56;12.10;87.30
14733;DHT22;7457;50.960;6.830;2022-11-15T09:05:22;12.20;86.70
14733;DHT22;7457;50.960;6.830;2022-11-15T09:07:52;12.20;86.00
14733;DHT22;7457;50.960;6.830;2022-11-15T09:10:17;12.30;85.90
14733;DHT22;7457;50.960;6.830;2022-11-15T09:12:43;12.30;85.90
14733;DHT22;7457;50.960;6.830;2022-11-15T09:15:09;12.40;85.20
14733;DHT22;7457;50.960;6.830;2022-11-15T09:17:35;12.60;84.50
14733;DHT22;7457;50.960;6.830;2022-11-15T09:20:00;12.80;84.00
14733;DHT22;7457;50.960;6.830;2022-11-15T09:22:26;13.00;83.80
14733;DHT22;7457;50.960;6.830;2022-11-15T09:24:51;13.20;83.00
14733;DHT22;7457;50.960;6.830;2022-11-15T09:27:17;13.40;81.60
14733;DHT22;7457;50.960;6.830;2022-11-15T09:29:43;13.50;80.50
14733;DHT22;7457;50.960;6.830;2022-11-15T09:32:09;13.50;80.00
14733;DHT22;7457;50.960;6.830;2022-11-15T09:34:34;13.50;79.80
14733;DHT22;7457;50.960;6.830;2022-11-15T09:37:00;13.50;79.60
14733;DHT22;7457;50.960;6.830;2022-11-15T09:39:26;13.50;78.80
14733;DHT22;7457;50.960;6.830;2022-11-15T09:44:59;13.80;77.40
14733;DHT22;7457;50.960;6.830;2022-11-15T09:50:27;14.00;75.30
14733;DHT22;7457;50.960;6.830;2022-11-15T09:52:55;14.00;75.40
14733;DHT22;7457;50.960;6.830;2022-11-15T09:55:26;14.20;75.10
14733;DHT22;7457;50.960;6.830;2022-11-15T09:58:10;14.40;75.20
14733;DHT22;7457;50.960;6.830;2022-11-15T10:00:48;14.80;74.50
14733;DHT22;7457;50.960;6.830;2022-11-15T10:05:48;15.20;70.40
14733;DHT22;7457;50.960;6.830;2022-11-15T10:11:06;15.50;70.70
14733;DHT22;7457;50.960;6.830;2022-11-15T10:13:34;15.80;70.80
14733;DHT22;7457;50.960;6.830;2022-11-15T10:16:13;16.20;70.30
14733;DHT22;7457;50.960;6.830;2022-11-15T10:19:03;16.30;69.80
14733;DHT22;7457;50.960;6.830;2022-11-15T10:24:19;16.90;68.60
14733;DHT22;7457;50.960;6.830;2022-11-15T10:26:48;17.10;65.90
14733;DHT22;7457;50.960;6.830;2022-11-15T10:29:19;17.00;63.80
14733;DHT22;7457;50.960;6.830;2022-11-15T10:31:45;16.90;63.40
14733;DHT22;7457;50.960;6.830;2022-11-15T10:34:14;16.80;62.30
14733;DHT22;7457;50.960;6.830;2022-11-15T10:36:57;16.90;61.70
14733;DHT22;7457;50.960;6.830;2022-11-15T10:39:23;17.10;61.70
14733;DHT22;7457;50.960;6.830;2022-11-15T10:41:49;17.20;60.00
14733;DHT22;7457;50.960;6.830;2022-11-15T10:49:26;17.10;57.50
14733;DHT22;7457;50.960;6.830;2022-11-15T10:54:43;16.90;57.90
14733;DHT22;7457;50.960;6.830;2022-11-15T10:57:22;16.90;57.90
14733;DHT22;7457;50.960;6.830;2022-11-15T10:59:53;17.00;58.00
14733;DHT22;7457;50.960;6.830;2022-11-15T11:02:38;17.10;57.70
14733;DHT22;7457;50.960;6.830;2022-11-15T11:08:00;17.10;57.00
14733;DHT22;7457;50.960;6.830;2022-11-15T11:10:27;17.30;57.90
14733;DHT22;7457;50.960;6.830;2022-11-15T11:12:53;17.40;56.60
14733;DHT22;7457;50.960;6.830;2022-11-15T11:15:19;17.60;56.20
14733;DHT22;7457;50.960;6.830;2022-11-15T11:17:57;17.70;56.40
14733;DHT22;7457;50.960;6.830;2022-11-15T11:20:40;17.90;56.00
14733;DHT22;7457;50.960;6.830;2022-11-15T11:23:31;17.80;54.80
14733;DHT22;7457;50.960;6.830;2022-11-15T11:26:24;17.50;54.70
14733;DHT22;7457;50.960;6.830;2022-11-15T11:31:35;17.00;55.70
14733;DHT22;7457;50.960;6.830;2022-11-15T11:34:33;16.90;56.50
14733;DHT22;7457;50.960;6.830;2022-11-15T11:37:24;17.00;56.60
14733;DHT22;7457;50.960;6.830;2022-11-15T11:40:19;17.00;56.30
14733;DHT22;7457;50.960;6.830;2022-11-15T11:45:52;17.00;56.80
14733;DHT22;7457;50.960;6.830;2022-11-15T11:51:20;17.30;58.00
14733;DHT22;7457;50.960;6.830;2022-11-15T11:53:54;17.40;57.10
14733;DHT22;7457;50.960;6.830;2022-11-15T11:56:32;17.40;57.90
14733;DHT22;7457;50.960;6.830;2022-11-15T11:59:27;17.30;56.30
14733;DHT22;7457;50.960;6.830;2022-11-15T12:01:54;17.10;57.30
14733;DHT22;7457;50.960;6.830;2022-11-15T12:04:42;17.10;57.40
14733;DHT22;7457;50.960;6.830;2022-11-15T12:07:23;17.10;57.40
14733;DHT22;7457;50.960;6.830;2022-11-15T12:10:04;16.90;57.90
14733;DHT22;7457;50.960;6.830;2022-11-15T12:12:45;16.90;57.90
14733;DHT22;7457;50.960;6.830;2022-11-15T12:17:41;16.60;57.80
14733;DHT22;7457;50.960;6.830;2022-11-15T12:20:19;16.30;57.40
14733;DHT22;7457;50.960;6.830;2022-11-15T12:30:17;15.20;59.90
14733;DHT22;7457;50.960;6.830;2022-11-15T12:32:58;15.00;60.60
14733;DHT22;7457;50.960;6.830;2022-11-15T12:35:41;14.90;60.80
14733;DHT22;7457;50.960;6.830;2022-11-15T12:38:12;14.80;61.00
14733;DHT22;7457;50.960;6.830;2022-11-15T12:41:11;14.60;61.70
14733;DHT22;7457;50.960;6.830;2022-11-15T12:43:42;14.60;62.50
14733;DHT22;7457;50.960;6.830;2022-11-15T12:51:09;14.60;62.50
14733;DHT22;7457;50.960;6.830;2022-11-15T12:53:35;14.60;62.40
14733;DHT22;7457;50.960;6.830;2022-11-15T12:58:52;14.40;63.20
14733;DHT22;7457;50.960;6.830;2022-11-15T13:11:58;14.20;65.20
14733;DHT22;7457;50.960;6.830;2022-11-15T13:14:47;14.30;65.50
14733;DHT22;7457;50.960;6.830;2022-11-15T13:19:46;14.30;65.60
14733;DHT22;7457;50.960;6.830;2022-11-15T13:22:12;14.30;65.80
14733;DHT22;7457;50.960;6.830;2022-11-15T13:24:57;14.30;65.90
14733;DHT22;7457;50.960;6.830;2022-11-15T13:27:24;14.30;65.80
14733;DHT22;7457;50.960;6.830;2022-11-15T13:29:50;14.20;66.00
14733;DHT22;7457;50.960;6.830;2022-11-15T13:32:17;14.20;66.20
14733;DHT22;7457;50.960;6.830;2022-11-15T13:34:45;14.20;66.40
14733;DHT22;7457;50.960;6.830;2022-11-15T13:37:29;14.10;66.40
14733;DHT22;7457;50.960;6.830;2022-11-15T13:42:41;14.00;66.70
14733;DHT22;7457;50.960;6.830;2022-11-15T13:45:14;14.00;67.10
14733;DHT22;7457;50.960;6.830;2022-11-15T13:47:40;14.00;67.20
14733;DHT22;7457;50.960;6.830;2022-11-15T13:50:05;14.00;67.50
14733;DHT22;7457;50.960;6.830;2022-11-15T13:52:34;14.00;67.80
14733;DHT22;7457;50.960;6.830;2022-11-15T13:55:29;14.00;68.10
14733;DHT22;7457;50.960;6.830;2022-11-15T13:58:00;14.10;68.00
14733;DHT22;7457;50.960;6.830;2022-11-15T14:03:29;14.10;68.00
14733;DHT22;7457;50.960;6.830;2022-11-15T14:06:11;14.20;68.00
14733;DHT22;7457;50.960;6.830;2022-11-15T14:08:42;14.20;68.00
14733;DHT22;7457;50.960;6.830;2022-11-15T14:11:22;14.10;68.20
14733;DHT22;7457;50.960;6.830;2022-11-15T14:19:02;13.90;69.50
14733;DHT22;7457;50.960;6.830;2022-11-15T14:21:28;13.80;69.90
14733;DHT22;7457;50.960;6.830;2022-11-15T14:24:22;13.80;70.10
14733;DHT22;7457;50.960;6.830;2022-11-15T14:26:55;13.70;70.70
14733;DHT22;7457;50.960;6.830;2022-11-15T14:29:27;13.70;70.80
14733;DHT22;7457;50.960;6.830;2022-11-15T14:31:54;13.70;70.80
14733;DHT22;7457;50.960;6.830;2022-11-15T14:34:32;13.70;71.10
14733;DHT22;7457;50.960;6.830;2022-11-15T14:36:57;13.70;71.30
14733;DHT22;7457;50.960;6.830;2022-11-15T14:39:23;13.70;71.50
14733;DHT22;7457;50.960;6.830;2022-11-15T14:41:50;13.70;71.90
14733;DHT22;7457;50.960;6.830;2022-11-15T14:44:16;13.70;71.90
14733;DHT22;7457;50.960;6.830;2022-11-15T14:46:43;13.70;71.80
14733;DHT22;7457;50.960;6.830;2022-11-15T14:49:10;13.70;71.80
14733;DHT22;7457;50.960;6.830;2022-11-15T14:51:38;13.70;71.70
14733;DHT22;7457;50.960;6.830;2022-11-15T14:54:04;13.70;71.80
14733;DHT22;7457;50.960;6.830;2022-11-15T14:56:29;13.70;71.60
14733;DHT22;7457;50.960;6.830;2022-11-15T14:58:55;13.70;71.80
14733;DHT22;7457;50.960;6.830;2022-11-15T15:01:24;13.70;71.80
14733;DHT22;7457;50.960;6.830;2022-11-15T15:03:50;13.70;72.00
14733;DHT22;7457;50.960;6.830;2022-11-15T15:06:18;13.70;72.10
14733;DHT22;7457;50.960;6.830;2022-11-15T15:08:43;13.70;72.20
14733;DHT22;7457;50.960;6.830;2022-11-15T15:11:38;13.70;72.10
14733;DHT22;7457;50.960;6.830;2022-11-15T15:14:04;13.70;72.20
14733;DHT22;7457;50.960;6.830;2022-11-15T15:16:30;13.70;72.10
14733;DHT22;7457;50.960;6.830;2022-11-15T15:18:55;13.70;72.20
14733;DHT22;7457;50.960;6.830;2022-11-15T15:23:51;13.60;72.30
14733;DHT22;7457;50.960;6.830;2022-11-15T15:26:17;13.60;72.20
14733;DHT22;7457;50.960;6.830;2022-11-15T15:28:43;13.60;72.30
14733;DHT22;7457;50.960;6.830;2022-11-15T15:31:09;13.60;72.30
14733;DHT22;7457;50.960;6.830;2022-11-15T15:33:36;13.60;72.40
14733;DHT22;7457;50.960;6.830;2022-11-15T15:36:02;13.60;72.40
14733;DHT22;7457;50.960;6.830;2022-11-15T15:38:28;13.50;72.30
14733;DHT22;7457;50.960;6.830;2022-11-15T15:40:53;13.60;72.40
14733;DHT22;7457;50.960;6.830;2022-11-15T15:43:19;13.60;72.40
14733;DHT22;7457;50.960;6.830;2022-11-15T15:45:45;13.60;72.40
14733;DHT22;7457;50.960;6.830;2022-11-15T15:48:16;13.60;72.40
14733;DHT22;7457;50.960;6.830;2022-11-15T15:50:42;13.60;72.40
14733;DHT22;7457;50.960;6.830;2022-11-15T15:53:09;13.60;72.30
14733;DHT22;7457;50.960;6.830;2022-11-15T15:55:36;13.60;72.30
14733;DHT22;7457;50.960;6.830;2022-11-15T15:58:03;13.60;72.30
14733;DHT22;7457;50.960;6.830;2022-11-15T16:00:29;13.60;72.20
14733;DHT22;7457;50.960;6.830;2022-11-15T16:02:54;13.70;72.20
14733;DHT22;7457;50.960;6.830;2022-11-15T16:05:21;13.70;72.20
14733;DHT22;7457;50.960;6.830;2022-11-15T16:07:47;13.70;72.20
14733;DHT22;7457;50.960;6.830;2022-11-15T16:12:38;13.60;72.30
14733;DHT22;7457;50.960;6.830;2022-11-15T16:15:04;13.60;72.40
14733;DHT22;7457;50.960;6.830;2022-11-15T16:17:33;13.60;72.60
14733;DHT22;7457;50.960;6.830;2022-11-15T16:20:00;13.50;72.80
14733;DHT22;7457;50.960;6.830;2022-11-15T16:22:26;13.50;72.90
14733;DHT22;7457;50.960;6.830;2022-11-15T16:24:51;13.50;72.90
14733;DHT22;7457;50.960;6.830;2022-11-15T16:27:19;13.50;73.00
14733;DHT22;7457;50.960;6.830;2022-11-15T16:29:46;13.50;73.10
14733;DHT22;7457;50.960;6.830;2022-11-15T16:32:12;13.50;73.10
14733;DHT22;7457;50.960;6.830;2022-11-15T16:34:38;13.60;73.10
14733;DHT22;7457;50.960;6.830;2022-11-15T16:37:04;13.60;73.10
14733;DHT22;7457;50.960;6.830;2022-11-15T16:39:30;13.50;73.30
14733;DHT22;7457;50.960;6.830;2022-11-15T16:41:57;13.50;73.40
14733;DHT22;7457;50.960;6.830;2022-11-15T16:44:23;13.50;73.50
14733;DHT22;7457;50.960;6.830;2022-11-15T16:46:49;13.50;73.60
14733;DHT22;7457;50.960;6.830;2022-11-15T16:49:19;13.40;73.70
14733;DHT22;7457;50.960;6.830;2022-11-15T16:51:46;13.40;73.70
14733;DHT22;7457;50.960;6.830;2022-11-15T16:54:12;13.40;73.80
14733;DHT22;7457;50.960;6.830;2022-11-15T16:56:38;13.40;73.90
14733;DHT22;7457;50.960;6.830;2022-11-15T16:59:04;13.40;73.90
14733;DHT22;7457;50.960;6.830;2022-11-15T17:01:32;13.40;74.00
14733;DHT22;7457;50.960;6.830;2022-11-15T17:04:00;13.40;74.10
14733;DHT22;7457;50.960;6.830;2022-11-15T17:06:37;13.40;74.10
14733;DHT22;7457;50.960;6.830;2022-11-15T17:09:04;13.40;74.00
14733;DHT22;7457;50.960;6.830;2022-11-15T17:11:29;13.40;74.10
14733;DHT22;7457;50.960;6.830;2022-11-15T17:13:58;13.40;74.20
14733;DHT22;7457;50.960;6.830;2022-11-15T17:16:24;13.30;74.30
14733;DHT22;7457;50.960;6.830;2022-11-15T17:18:50;13.30;74.40
14733;DHT22;7457;50.960;6.830;2022-11-15T17:21:19;13.30;74.50
14733;DHT22;7457;50.960;6.830;2022-11-15T17:23:45;13.30;74.60
14733;DHT22;7457;50.960;6.830;2022-11-15T17:26:12;13.30;74.80
14733;DHT22;7457;50.960;6.830;2022-11-15T17:28:38;13.30;75.00
14733;DHT22;7457;50.960;6.830;2022-11-15T17:31:09;13.30;75.10
14733;DHT22;7457;50.960;6.830;2022-11-15T17:33:36;13.30;75.20
14733;DHT22;7457;50.960;6.830;2022-11-15T17:36:04;13.30;75.50
14733;DHT22;7457;50.960;6.830;2022-11-15T17:38:30;13.20;75.80
14733;DHT22;7457;50.960;6.830;2022-11-15T17:43:29;13.10;76.40
14733;DHT22;7457;50.960;6.830;2022-11-15T17:45:55;13.10;77.00
14733;DHT22;7457;50.960;6.830;2022-11-15T17:48:21;13.10;77.30
14733;DHT22;7457;50.960;6.830;2022-11-15T17:51:06;13.00;77.70
14733;DHT22;7457;50.960;6.830;2022-11-15T17:53:34;12.90;78.20
14733;DHT22;7457;50.960;6.830;2022-11-15T17:58:34;12.70;79.40
14733;DHT22;7457;50.960;6.830;2022-11-15T18:01:20;12.60;79.80
14733;DHT22;7457;50.960;6.830;2022-11-15T18:03:46;12.60;80.90
14733;DHT22;7457;50.960;6.830;2022-11-15T18:06:13;12.50;81.00